Time;durP1;ratioP1;P1;durP2;ratioP2;P2;SDS_P1;SDS_P2;PMS_P1;PMS_P2;Temp;Humidity;BMP_temperature;BMP_pressure;BME280_temperature;BME280_humidity;BME280_pressure;Samples;Min_cycle;Max_cycle;Signal;HPM_P1;HPM_P2
2021/05/31 00:00:38;;;;;;;7.82;5.03;;;16.70;96.80;;;;;;5011498;28;20032;-61
2021/05/31 00:03:04;;;;;;;5.07;4.57;;;16.60;97.20;;;;;;5011669;28;20026;-61
2021/05/31 00:05:31;;;;;;;7.20;4.72;;;16.60;97.40;;;;;;5011356;28;20045;-60
2021/05/31 00:07:57;;;;;;;5.80;4.85;;;16.50;97.90;;;;;;5011382;28;20037;-60
2021/05/31 00:10:24;;;;;;;5.55;4.68;;;16.50;99.20;;;;;;5026568;28;20113;-61
2021/05/31 00:12:50;;;;;;;5.22;4.75;;;16.40;99.20;;;;;;5011102;28;20386;-60
2021/05/31 00:15:16;;;;;;;6.40;4.65;;;16.30;99.90;;;;;;5010305;28;20104;-60
2021/05/31 00:17:41;;;;;;;7.18;4.63;;;16.30;99.90;;;;;;5011267;28;20463;-60
2021/05/31 00:20:09;;;;;;;5.35;4.35;;;16.20;99.90;;;;;;5011276;28;20030;-60
2021/05/31 00:22:35;;;;;;;6.22;4.40;;;16.30;99.90;;;;;;5011008;28;20018;-60
2021/05/31 00:25:02;;;;;;;7.60;4.55;;;16.20;99.90;;;;;;5010036;28;20114;-60
2021/05/31 00:27:28;;;;;;;5.85;4.57;;;16.20;99.90;;;;;;5011184;28;20024;-60
2021/05/31 00:29:54;;;;;;;5.38;4.60;;;16.20;99.90;;;;;;5011363;28;20029;-61
2021/05/31 00:32:20;;;;;;;5.50;4.30;;;16.20;99.90;;;;;;5010858;28;20084;-60
2021/05/31 00:34:46;;;;;;;5.40;4.55;;;16.20;99.90;;;;;;5011202;28;20038;-60
2021/05/31 00:37:12;;;;;;;7.65;4.50;;;16.10;99.90;;;;;;5010819;28;20038;-60
2021/05/31 00:39:38;;;;;;;5.80;4.53;;;16.10;99.90;;;;;;5011231;28;20022;-61
2021/05/31 00:42:04;;;;;;;5.78;4.80;;;16.10;99.90;;;;;;5011009;28;20026;-61
2021/05/31 00:44:30;;;;;;;7.63;4.97;;;16.10;99.90;;;;;;5009969;28;20033;-61
2021/05/31 00:46:55;;;;;;;6.30;4.93;;;16.00;99.90;;;;;;5011026;28;20382;-61
2021/05/31 00:49:28;;;;;;;10.77;5.50;;;15.90;99.90;;;;;;5010864;28;20057;-60
2021/05/31 00:51:54;;;;;;;9.85;5.15;;;16.00;99.90;;;;;;5011269;28;20390;-60
2021/05/31 00:54:21;;;;;;;8.23;4.85;;;15.90;99.90;;;;;;5011171;28;20030;-60
2021/05/31 00:56:48;;;;;;;9.25;4.82;;;15.90;99.90;;;;;;5010925;28;20026;-61
2021/05/31 00:59:14;;;;;;;8.15;4.85;;;15.90;99.90;;;;;;5010965;28;20029;-61
2021/05/31 01:01:40;;;;;;;6.75;4.90;;;15.80;99.90;;;;;;5010868;28;20040;-61
2021/05/31 01:04:05;;;;;;;6.65;4.72;;;15.80;99.90;;;;;;5026176;28;20106;-60
2021/05/31 01:06:35;;;;;;;8.77;4.75;;;15.80;99.90;;;;;;5010713;28;20018;-60
2021/05/31 01:09:05;;;;;;;5.72;4.97;;;15.80;99.90;;;;;;5011043;28;20457;-60
2021/05/31 01:11:49;;;;;;;6.50;4.85;;;15.70;99.90;;;;;;5010731;28;20037;-60
2021/05/31 01:14:41;;;;;;;6.40;4.80;;;15.60;99.90;;;;;;5010983;28;20026;-60
2021/05/31 01:17:16;;;;;;;7.18;4.90;;;15.50;99.90;;;;;;5010803;28;20022;-60
2021/05/31 01:19:41;;;;;;;5.35;4.85;;;15.50;99.90;;;;;;5010762;28;20444;-60
2021/05/31 01:22:11;;;;;;;6.03;5.05;;;15.40;99.90;;;;;;5010701;28;20101;-60
2021/05/31 01:24:49;;;;;;;6.43;4.85;;;15.40;99.90;;;;;;5010837;28;20108;-60
2021/05/31 01:27:22;;;;;;;6.82;4.97;;;15.30;99.90;;;;;;5010731;28;20026;-60
2021/05/31 01:30:09;;;;;;;6.53;5.15;;;15.30;99.90;;;;;;5009531;28;20022;-60
2021/05/31 01:32:47;;;;;;;14.60;5.00;;;15.20;99.90;;;;;;5010464;28;20433;-60
2021/05/31 01:35:16;;;;;;;7.18;4.93;;;15.20;99.90;;;;;;5012369;28;20048;-60
2021/05/31 01:37:43;;;;;;;6.70;5.20;;;15.20;99.90;;;;;;5013762;28;20421;-60
2021/05/31 01:40:11;;;;;;;8.43;5.43;;;15.20;99.90;;;;;;5014195;28;20462;-60
2021/05/31 01:42:37;;;;;;;6.20;5.10;;;15.10;99.90;;;;;;5014217;28;20080;-60
2021/05/31 01:45:04;;;;;;;7.82;5.70;;;15.00;99.90;;;;;;5014144;28;20026;-60
2021/05/31 01:47:32;;;;;;;6.00;5.40;;;15.00;99.90;;;;;;5013572;28;20037;-59
2021/05/31 01:49:58;;;;;;;5.95;5.38;;;15.00;99.90;;;;;;5013751;28;20037;-60
2021/05/31 01:52:25;;;;;;;7.90;5.57;;;14.90;99.90;;;;;;5013718;28;20030;-59
2021/05/31 01:54:55;;;;;;;7.93;5.60;;;14.80;99.90;;;;;;5014174;28;20030;-61
2021/05/31 01:57:21;;;;;;;6.38;5.53;;;14.70;99.90;;;;;;5014215;28;20111;-60
2021/05/31 01:59:47;;;;;;;8.73;5.72;;;14.60;99.90;;;;;;5013580;28;20433;-60
2021/05/31 02:02:14;;;;;;;9.05;5.72;;;14.80;99.90;;;;;;5012320;28;20026;-60
2021/05/31 02:04:40;;;;;;;8.85;6.28;;;14.70;99.90;;;;;;5013964;28;20030;-60
2021/05/31 02:07:05;;;;;;;10.02;6.43;;;14.60;99.90;;;;;;5013264;28;20042;-59
2021/05/31 02:09:31;;;;;;;12.07;6.13;;;14.70;99.90;;;;;;5013702;28;20026;-59
2021/05/31 02:12:09;;;;;;;11.90;5.85;;;14.70;99.90;;;;;;5012887;28;20425;-59
2021/05/31 02:14:59;;;;;;;13.35;6.30;;;14.60;99.90;;;;;;5013645;28;20022;-60
2021/05/31 02:17:45;;;;;;;9.45;6.70;;;14.50;99.90;;;;;;5013803;28;20351;-60
2021/05/31 02:20:18;;;;;;;9.70;6.93;;;14.60;99.90;;;;;;5013451;28;20104;-60
2021/05/31 02:22:54;;;;;;;10.60;7.03;;;14.70;99.90;;;;;;5013229;28;20026;-61
2021/05/31 02:25:20;;;;;;;9.00;6.68;;;14.70;99.90;;;;;;5013172;28;20029;-59
2021/05/31 02:27:48;;;;;;;10.70;6.32;;;14.60;99.90;;;;;;5012091;28;20033;-59
2021/05/31 02:30:15;;;;;;;7.85;6.78;;;14.40;99.90;;;;;;5013174;28;20030;-61
2021/05/31 02:32:56;;;;;;;8.93;6.60;;;14.40;99.90;;;;;;5013206;28;20034;-60
2021/05/31 02:35:22;;;;;;;11.52;7.15;;;14.40;99.90;;;;;;5012904;28;20378;-59
2021/05/31 02:37:48;;;;;;;7.72;6.32;;;14.30;99.90;;;;;;5012576;28;20038;-60
2021/05/31 02:40:15;;;;;;;8.45;6.68;;;14.40;99.90;;;;;;5013045;28;20056;-60
2021/05/31 02:42:44;;;;;;;9.23;6.85;;;14.50;99.90;;;;;;5011516;28;20137;-60
2021/05/31 02:45:11;;;;;;;9.30;6.88;;;14.40;99.90;;;;;;5012804;28;20053;-61
2021/05/31 02:47:38;;;;;;;9.18;7.07;;;14.30;99.90;;;;;;5026990;28;20022;-61
2021/05/31 02:50:05;;;;;;;12.68;8.05;;;14.30;99.90;;;;;;5012614;28;20034;-61
2021/05/31 02:52:30;;;;;;;8.80;7.13;;;14.50;99.90;;;;;;5012553;28;20026;-60
2021/05/31 02:54:56;;;;;;;9.55;7.28;;;14.50;99.90;;;;;;5012712;28;20020;-60
2021/05/31 02:57:21;;;;;;;10.52;7.43;;;14.40;99.90;;;;;;5012585;28;20478;-60
2021/05/31 02:59:47;;;;;;;9.93;7.60;;;14.40;99.90;;;;;;5011197;28;20030;-60
2021/05/31 03:02:13;;;;;;;10.75;7.40;;;14.40;99.90;;;;;;5012366;28;20105;-60
2021/05/31 03:04:38;;;;;;;10.38;7.55;;;14.60;99.90;;;;;;5012493;28;20041;-60
2021/05/31 03:07:04;;;;;;;9.25;7.13;;;14.40;99.90;;;;;;5011093;28;20113;-60
2021/05/31 03:09:30;;;;;;;8.88;7.60;;;14.30;99.90;;;;;;5012401;28;20499;-60
2021/05/31 03:11:56;;;;;;;10.70;7.32;;;14.10;99.90;;;;;;5012353;28;20033;-60
2021/05/31 03:14:21;;;;;;;16.40;7.15;;;14.10;99.90;;;;;;5011229;28;20021;-60
2021/05/31 03:16:47;;;;;;;27.20;9.38;;;14.10;99.90;;;;;;5012094;28;20097;-61
2021/05/31 03:19:13;;;;;;;12.25;7.68;;;14.10;99.90;;;;;;5027300;28;20025;-61
2021/05/31 03:21:39;;;;;;;10.60;7.45;;;14.10;99.90;;;;;;5027381;28;20172;-61
2021/05/31 03:24:04;;;;;;;8.95;7.65;;;14.20;99.90;;;;;;5012125;28;20033;-61
2021/05/31 03:26:30;;;;;;;14.40;8.45;;;14.30;99.90;;;;;;5027316;28;20041;-60
2021/05/31 03:28:56;;;;;;;10.05;7.72;;;14.30;99.90;;;;;;5027246;28;20033;-60
2021/05/31 03:31:21;;;;;;;13.25;8.02;;;14.20;99.90;;;;;;5010764;28;20441;-60
2021/05/31 03:33:47;;;;;;;11.15;8.77;;;14.20;99.90;;;;;;5011660;28;20030;-59
2021/05/31 03:36:13;;;;;;;10.73;7.68;;;14.20;99.90;;;;;;5011660;28;20048;-60
2021/05/31 03:38:39;;;;;;;10.32;8.10;;;14.20;99.90;;;;;;5011643;28;20045;-60
2021/05/31 03:41:04;;;;;;;13.07;7.88;;;14.10;99.90;;;;;;5027019;28;20028;-60
2021/05/31 03:43:30;;;;;;;10.15;7.47;;;13.90;99.90;;;;;;5011647;28;20069;-60
2021/05/31 03:45:55;;;;;;;9.70;7.55;;;14.00;99.90;;;;;;5011634;28;20391;-60
2021/05/31 03:48:21;;;;;;;11.45;8.23;;;14.10;99.90;;;;;;5011658;28;20029;-60
2021/05/31 03:50:47;;;;;;;11.85;8.00;;;14.00;99.90;;;;;;5010375;28;20049;-60
2021/05/31 03:53:12;;;;;;;10.07;7.65;;;13.90;99.90;;;;;;5011710;28;20474;-60
2021/05/31 03:55:38;;;;;;;9.07;7.95;;;13.80;99.90;;;;;;5011669;28;20033;-60
2021/05/31 03:58:04;;;;;;;10.60;8.25;;;13.90;99.90;;;;;;5009905;28;20018;-60
2021/05/31 04:00:29;;;;;;;10.07;7.72;;;14.00;99.90;;;;;;5011447;28;20018;-60
2021/05/31 04:02:56;;;;;;;11.00;7.75;;;14.00;99.90;;;;;;5011538;28;20530;-61
2021/05/31 04:05:22;;;;;;;13.07;7.65;;;13.90;99.90;;;;;;5011750;28;20030;-61
2021/05/31 04:13:18;;;;;;;13.43;8.32;;;13.80;99.90;;;;;;5011451;28;20513;-61
2021/05/31 04:15:43;;;;;;;9.40;7.65;;;13.80;99.90;;;;;;5011322;28;20093;-61
2021/05/31 04:18:09;;;;;;;10.85;8.10;;;13.80;99.90;;;;;;5011326;28;20022;-61
2021/05/31 04:20:35;;;;;;;16.00;8.20;;;13.70;99.90;;;;;;5009844;28;20113;-61
2021/05/31 04:23:02;;;;;;;12.70;9.82;;;13.70;99.90;;;;;;5011396;28;20025;-61
2021/05/31 04:25:27;;;;;;;9.90;7.95;;;13.70;99.90;;;;;;5011185;28;20030;-61
2021/05/31 04:27:53;;;;;;;9.25;8.30;;;13.80;99.90;;;;;;5011047;28;20109;-61
2021/05/31 04:30:19;;;;;;;15.60;8.93;;;13.80;99.90;;;;;;5011259;28;20034;-60
2021/05/31 04:32:45;;;;;;;11.32;8.25;;;13.90;99.90;;;;;;5011022;28;20077;-60
2021/05/31 04:35:11;;;;;;;16.13;8.15;;;14.00;99.90;;;;;;5011156;28;20026;-60
2021/05/31 04:37:36;;;;;;;11.23;7.93;;;14.10;99.90;;;;;;5010666;28;20042;-61
2021/05/31 04:40:03;;;;;;;11.27;7.78;;;14.20;99.90;;;;;;5011045;28;20530;-61
2021/05/31 04:42:29;;;;;;;15.02;8.07;;;14.10;99.90;;;;;;5026043;28;20065;-61
2021/05/31 04:44:55;;;;;;;11.05;7.40;;;14.20;99.90;;;;;;5011187;28;20045;-61
2021/05/31 04:47:20;;;;;;;10.18;8.13;;;14.30;99.90;;;;;;5010952;28;20060;-61
2021/05/31 04:49:46;;;;;;;11.32;8.40;;;14.40;99.90;;;;;;5009560;28;20132;-61
2021/05/31 04:52:12;;;;;;;12.98;8.65;;;14.50;99.90;;;;;;5010906;28;20474;-61
2021/05/31 04:54:37;;;;;;;11.05;7.65;;;14.60;99.90;;;;;;5009929;28;20021;-61
2021/05/31 04:57:03;;;;;;;10.60;7.70;;;14.50;99.90;;;;;;5009701;28;20157;-61
2021/05/31 04:59:29;;;;;;;11.65;8.18;;;14.40;99.90;;;;;;5010803;28;20564;-60
2021/05/31 05:01:54;;;;;;;13.52;8.13;;;14.60;99.90;;;;;;5009691;28;20030;-61
2021/05/31 05:04:20;;;;;;;9.88;7.65;;;14.70;99.90;;;;;;5011096;28;20042;-61
2021/05/31 05:06:46;;;;;;;13.38;8.00;;;14.70;99.90;;;;;;5009377;28;20076;-60
2021/05/31 05:09:11;;;;;;;12.02;8.50;;;14.70;99.90;;;;;;5011261;28;20030;-60
2021/05/31 05:11:37;;;;;;;13.32;7.75;;;14.60;99.90;;;;;;5014984;28;20026;-61
2021/05/31 05:14:03;;;;;;;9.63;8.02;;;14.70;99.90;;;;;;5014727;28;20049;-61
2021/05/31 05:16:28;;;;;;;12.73;7.90;;;14.70;99.90;;;;;;5014572;28;20521;-61
2021/05/31 05:18:55;;;;;;;13.65;7.93;;;14.70;99.90;;;;;;5014705;28;20026;-61
2021/05/31 05:21:22;;;;;;;10.48;7.78;;;14.80;99.90;;;;;;5014552;28;20105;-61
2021/05/31 05:23:49;;;;;;;14.75;8.60;;;14.80;99.90;;;;;;5014381;28;20026;-61
2021/05/31 05:26:15;;;;;;;13.20;8.68;;;14.90;99.90;;;;;;5014316;28;20057;-61
2021/05/31 05:28:41;;;;;;;16.02;8.95;;;14.90;99.90;;;;;;5014342;28;20133;-60
2021/05/31 05:31:08;;;;;;;12.10;7.95;;;15.20;99.90;;;;;;5013974;28;20097;-60
2021/05/31 05:33:36;;;;;;;13.07;8.30;;;15.40;99.90;;;;;;5000577;28;20113;-60
2021/05/31 05:36:32;;;;;;;14.55;8.48;;;15.40;99.90;;;;;;4998095;28;20030;-61
2021/05/31 05:41:37;;;;;;;14.90;8.35;;;15.30;99.90;;;;;;4998147;28;20058;-61
2021/05/31 05:44:21;;;;;;;9.77;7.72;;;15.40;99.90;;;;;;4995062;28;20018;-60
2021/05/31 05:49:38;;;;;;;9.57;7.80;;;15.50;99.90;;;;;;5012974;28;20038;-61
2021/05/31 05:52:04;;;;;;;9.65;7.43;;;15.50;99.90;;;;;;5023320;28;20030;-62
2021/05/31 05:54:30;;;;;;;11.63;7.78;;;15.50;99.90;;;;;;5010164;28;20485;-61
2021/05/31 05:56:55;;;;;;;11.00;7.65;;;15.50;99.90;;;;;;5009796;28;20121;-60
2021/05/31 05:59:21;;;;;;;11.98;8.13;;;15.50;99.90;;;;;;5011974;28;20617;-61
2021/05/31 06:01:47;;;;;;;12.13;7.85;;;15.70;99.90;;;;;;5008575;28;20110;-61
2021/05/31 06:04:12;;;;;;;12.93;8.13;;;15.60;99.90;;;;;;4994154;28;20036;-61
2021/05/31 06:06:38;;;;;;;11.63;7.65;;;15.70;99.90;;;;;;5000191;28;20367;-61
2021/05/31 06:09:05;;;;;;;12.32;7.95;;;15.80;99.90;;;;;;4986933;28;20493;-61
2021/05/31 06:11:31;;;;;;;10.98;7.93;;;16.00;99.90;;;;;;4998410;28;20056;-61
2021/05/31 06:13:56;;;;;;;10.13;7.75;;;16.10;99.90;;;;;;5006708;28;20073;-61
2021/05/31 06:16:22;;;;;;;12.60;7.97;;;16.00;99.90;;;;;;4997223;28;20029;-61
2021/05/31 06:18:48;;;;;;;12.07;7.82;;;16.30;99.90;;;;;;4995151;28;20026;-62
2021/05/31 06:21:13;;;;;;;12.82;7.32;;;16.40;99.90;;;;;;5016948;28;20576;-57
2021/05/31 06:23:39;;;;;;;11.35;7.43;;;16.50;99.90;;;;;;5002700;28;20439;-57
2021/05/31 06:26:05;;;;;;;12.38;7.70;;;16.70;99.90;;;;;;5003969;28;20034;-59
2021/05/31 06:28:30;;;;;;;11.57;7.55;;;16.90;99.90;;;;;;4990612;28;20038;-60
2021/05/31 06:30:57;;;;;;;13.10;7.45;;;17.10;99.90;;;;;;5011161;28;20029;-57
2021/05/31 06:33:22;;;;;;;10.10;6.88;;;17.20;99.90;;;;;;5005416;28;20400;-57
2021/05/31 06:35:50;;;;;;;12.43;6.95;;;17.20;99.90;;;;;;4999886;28;20425;-56
2021/05/31 06:38:15;;;;;;;10.82;6.55;;;17.20;99.90;;;;;;4984624;28;20077;-57
2021/05/31 06:40:41;;;;;;;8.82;7.10;;;17.50;99.90;;;;;;4987135;28;20061;-58
2021/05/31 06:43:07;;;;;;;15.63;6.75;;;18.30;99.90;;;;;;4992317;28;20121;-59
2021/05/31 06:45:33;;;;;;;9.60;6.10;;;19.60;99.90;;;;;;5002575;28;20044;-57
2021/05/31 06:48:03;;;;;;;11.52;7.28;;;20.80;94.90;;;;;;4981286;28;20030;-58
2021/05/31 06:50:32;;;;;;;9.43;5.97;;;21.50;91.10;;;;;;4991550;28;20136;-58
2021/05/31 06:52:58;;;;;;;7.13;5.40;;;22.20;86.30;;;;;;5005528;28;20124;-57
2021/05/31 06:55:25;;;;;;;10.65;5.50;;;22.80;81.00;;;;;;5004171;28;20448;-58
2021/05/31 06:57:51;;;;;;;9.63;5.72;;;23.50;75.60;;;;;;5007841;28;20029;-58
2021/05/31 07:00:20;;;;;;;10.05;5.57;;;24.10;70.20;;;;;;5000373;28;20056;-58
2021/05/31 07:02:46;;;;;;;6.38;5.70;;;24.60;65.00;;;;;;5007340;28;20053;-58
2021/05/31 07:05:12;;;;;;;7.93;5.45;;;24.40;63.50;;;;;;5007500;28;20119;-58
2021/05/31 07:07:38;;;;;;;12.90;5.18;;;24.80;63.50;;;;;;5005361;28;20053;-58
2021/05/31 07:10:10;;;;;;;12.25;5.35;;;25.00;61.40;;;;;;5004274;28;20038;-58
2021/05/31 07:12:36;;;;;;;7.35;4.63;;;25.50;58.70;;;;;;5005567;28;20041;-56
2021/05/31 07:15:05;;;;;;;6.03;4.93;;;26.30;57.90;;;;;;4998425;28;20485;-56
2021/05/31 07:17:33;;;;;;;8.20;4.43;;;26.70;56.50;;;;;;4990010;28;20088;-57
2021/05/31 07:19:59;;;;;;;8.55;4.40;;;26.70;54.90;;;;;;5014475;28;20479;-58
2021/05/31 07:22:26;;;;;;;6.80;4.50;;;27.00;54.20;;;;;;4992642;28;20030;-58
2021/05/31 07:24:52;;;;;;;9.57;5.30;;;27.10;53.00;;;;;;4997922;28;20052;-57
2021/05/31 07:27:18;;;;;;;8.27;4.35;;;27.60;51.90;;;;;;5001337;28;20038;-57
2021/05/31 07:29:44;;;;;;;6.47;4.68;;;27.80;50.20;;;;;;5003343;28;20116;-57
2021/05/31 07:32:10;;;;;;;10.68;4.82;;;28.10;49.20;;;;;;5007086;28;20140;-57
2021/05/31 07:34:35;;;;;;;12.82;4.43;;;28.10;49.60;;;;;;5005689;28;20030;-57
2021/05/31 07:37:01;;;;;;;6.90;4.60;;;27.70;50.30;;;;;;4990537;28;20034;-57
2021/05/31 07:39:27;;;;;;;8.57;4.45;;;27.60;50.10;;;;;;4998366;28;20068;-59
2021/05/31 07:41:53;;;;;;;8.00;4.50;;;28.10;49.60;;;;;;4988351;28;20263;-58
2021/05/31 07:44:19;;;;;;;9.05;4.40;;;28.40;49.10;;;;;;4989865;28;20399;-58
2021/05/31 07:46:45;;;;;;;9.95;4.20;;;29.30;47.30;;;;;;4999759;28;20026;-58
2021/05/31 07:49:11;;;;;;;10.27;4.80;;;30.00;47.30;;;;;;4994351;28;20034;-58
2021/05/31 07:51:41;;;;;;;8.95;4.63;;;29.20;47.10;;;;;;4988085;28;20025;-57
2021/05/31 07:54:07;;;;;;;6.43;3.75;;;29.00;46.40;;;;;;5004491;28;20844;-57
2021/05/31 07:56:33;;;;;;;10.40;3.97;;;29.00;45.90;;;;;;5002241;28;20037;-57
2021/05/31 07:58:59;;;;;;;7.82;3.78;;;28.50;47.40;;;;;;4999167;28;20117;-58
2021/05/31 08:01:25;;;;;;;5.85;3.72;;;28.10;47.40;;;;;;4987122;28;20073;-58
2021/05/31 08:03:51;;;;;;;6.40;3.50;;;28.70;45.90;;;;;;4997735;28;20044;-59
2021/05/31 08:06:17;;;;;;;10.57;3.83;;;28.70;46.80;;;;;;4997062;28;20402;-56
2021/05/31 08:08:43;;;;;;;8.40;3.72;;;28.90;46.20;;;;;;5000519;28;20037;-58
2021/05/31 08:11:09;;;;;;;6.38;3.97;;;29.60;46.10;;;;;;4994300;28;20030;-58
2021/05/31 08:13:36;;;;;;;4.03;3.33;;;30.20;44.40;;;;;;4995197;28;20030;-57
2021/05/31 08:16:03;;;;;;;5.85;3.42;;;30.10;44.70;;;;;;5003487;28;20032;-57
2021/05/31 08:18:29;;;;;;;8.27;3.95;;;30.00;44.80;;;;;;5001700;28;20030;-56
2021/05/31 08:20:54;;;;;;;12.60;3.80;;;29.40;43.70;;;;;;4990429;28;20104;-57
2021/05/31 08:23:20;;;;;;;8.07;3.45;;;29.20;44.70;;;;;;4994270;28;20076;-59
2021/05/31 08:25:46;;;;;;;6.75;3.22;;;29.10;43.70;;;;;;5001051;28;20038;-57
2021/05/31 08:28:11;;;;;;;9.52;3.22;;;30.00;42.80;;;;;;5001941;28;20077;-57
2021/05/31 08:30:40;;;;;;;5.25;3.05;;;31.20;41.20;;;;;;4996838;28;20265;-57
2021/05/31 08:33:06;;;;;;;8.63;3.58;;;31.10;40.70;;;;;;4979057;28;20034;-57
2021/05/31 08:35:52;;;;;;;5.35;3.88;;;30.60;42.20;;;;;;5001054;28;20030;-57
2021/05/31 08:38:19;;;;;;;6.75;3.13;;;31.00;41.20;;;;;;4999061;28;20031;-54
2021/05/31 08:40:44;;;;;;;8.13;3.10;;;30.50;41.70;;;;;;5002897;28;20018;-54
2021/05/31 08:43:10;;;;;;;3.38;2.50;;;31.20;41.00;;;;;;4995084;28;20036;-53
2021/05/31 08:45:38;;;;;;;4.65;3.10;;;31.10;40.60;;;;;;5000689;28;20084;-53
2021/05/31 08:48:04;;;;;;;8.70;3.20;;;30.10;41.10;;;;;;5007211;28;20037;-54
2021/05/31 08:50:32;;;;;;;5.35;2.92;;;29.00;41.90;;;;;;5002431;28;20026;-55
2021/05/31 08:52:58;;;;;;;8.07;2.80;;;28.70;42.40;;;;;;4997868;28;20042;-55
2021/05/31 08:55:26;;;;;;;4.28;2.70;;;29.40;40.90;;;;;;4998413;28;20041;-55
2021/05/31 08:57:53;;;;;;;4.20;2.55;;;29.80;40.10;;;;;;4995680;28;20117;-54
2021/05/31 09:00:28;;;;;;;3.97;2.28;;;30.30;39.40;;;;;;5003095;28;20029;-55
2021/05/31 09:02:57;;;;;;;2.78;2.33;;;30.60;39.50;;;;;;4989732;28;20033;-55
2021/05/31 09:05:37;;;;;;;2.72;2.45;;;30.50;38.30;;;;;;5007919;28;20032;-54
2021/05/31 09:08:29;;;;;;;3.38;2.33;;;30.50;38.80;;;;;;5002106;28;20088;-56
2021/05/31 09:11:06;;;;;;;7.53;2.92;;;30.30;38.50;;;;;;4984470;28;20076;-56
2021/05/31 09:13:43;;;;;;;3.90;2.33;;;30.50;37.50;;;;;;5005067;28;20079;-55
2021/05/31 09:16:24;;;;;;;5.38;2.92;;;30.50;38.80;;;;;;5006315;28;20034;-55
2021/05/31 09:18:54;;;;;;;3.33;2.45;;;30.50;37.90;;;;;;5009389;28;20029;-55
2021/05/31 09:21:25;;;;;;;6.70;2.10;;;30.90;37.80;;;;;;5008900;28;20050;-56
2021/05/31 09:24:03;;;;;;;4.55;2.42;;;30.00;38.00;;;;;;5010355;28;20596;-55
2021/05/31 09:26:29;;;;;;;5.28;2.70;;;30.30;38.90;;;;;;5009266;28;20210;-55
2021/05/31 09:29:00;;;;;;;6.88;2.50;;;29.00;39.20;;;;;;5006364;28;20032;-55
2021/05/31 09:31:28;;;;;;;2.87;2.47;;;28.80;39.50;;;;;;5003263;28;20026;-56
2021/05/31 09:33:59;;;;;;;5.43;2.80;;;29.80;38.30;;;;;;5000666;28;20481;-56
2021/05/31 09:36:26;;;;;;;5.25;2.40;;;30.90;38.10;;;;;;5006716;28;20022;-55
2021/05/31 09:38:52;;;;;;;5.07;2.80;;;30.70;37.80;;;;;;4985022;28;20069;-55
2021/05/31 09:41:44;;;;;;;6.22;2.90;;;30.10;38.80;;;;;;4995214;28;20041;-56
2021/05/31 09:44:10;;;;;;;7.90;2.85;;;30.10;38.30;;;;;;5001253;28;20026;-55
2021/05/31 09:46:45;;;;;;;6.40;2.85;;;30.20;38.70;;;;;;5006161;28;20042;-55
2021/05/31 09:49:22;;;;;;;3.67;2.78;;;30.60;36.90;;;;;;4993924;28;20036;-55
2021/05/31 09:52:03;;;;;;;3.17;2.45;;;29.70;38.40;;;;;;5000731;28;20491;-55
2021/05/31 09:54:36;;;;;;;5.35;2.65;;;29.80;40.00;;;;;;5006411;28;20029;-55
2021/05/31 09:57:25;;;;;;;5.95;2.67;;;30.60;38.80;;;;;;5003897;28;20033;-55
2021/05/31 09:59:55;;;;;;;2.83;2.60;;;30.70;37.30;;;;;;4975283;28;20049;-55
2021/05/31 10:05:37;;;;;;;5.28;2.30;;;30.30;37.20;;;;;;5008667;28;20483;-55
2021/05/31 10:10:50;;;;;;;3.47;2.78;;;30.10;39.60;;;;;;4987020;28;20075;-55
2021/05/31 10:13:19;;;;;;;7.47;2.55;;;30.20;38.00;;;;;;5007994;28;20449;-54
2021/05/31 10:15:45;;;;;;;5.25;2.67;;;29.90;38.60;;;;;;5007081;28;20386;-54
2021/05/31 10:18:16;;;;;;;6.53;2.50;;;29.60;38.90;;;;;;5004263;28;20451;-55
2021/05/31 10:20:42;;;;;;;7.38;3.15;;;29.30;38.70;;;;;;4996158;28;20216;-55
2021/05/31 10:23:09;;;;;;;9.05;2.95;;;28.90;38.90;;;;;;4994051;28;20075;-55
2021/05/31 10:25:39;;;;;;;7.90;2.38;;;29.30;38.90;;;;;;4999867;28;20060;-55
2021/05/31 10:28:09;;;;;;;5.70;2.70;;;29.40;38.50;;;;;;5004725;28;20030;-55
2021/05/31 10:30:40;;;;;;;4.18;2.38;;;29.80;37.90;;;;;;5019954;28;20104;-56
2021/05/31 10:33:17;;;;;;;10.40;2.63;;;29.70;39.00;;;;;;5008287;28;20033;-55
2021/05/31 10:35:45;;;;;;;4.15;2.50;;;29.80;38.00;;;;;;5006357;28;20029;-55
2021/05/31 10:38:13;;;;;;;7.47;2.55;;;30.10;37.30;;;;;;5008264;28;20069;-55
2021/05/31 10:40:43;;;;;;;10.15;2.85;;;29.70;37.20;;;;;;5006363;28;20446;-56
2021/05/31 10:43:11;;;;;;;7.72;2.85;;;29.20;37.00;;;;;;5005258;28;20033;-56
2021/05/31 10:45:38;;;;;;;8.15;3.13;;;29.50;37.90;;;;;;5008943;28;20030;-55
2021/05/31 10:48:08;;;;;;;6.80;2.90;;;29.20;38.90;;;;;;5005545;28;20041;-56
2021/05/31 10:50:46;;;;;;;3.60;2.55;;;30.10;37.10;;;;;;5006241;28;20029;-56
2021/05/31 10:55:56;;;;;;;10.13;2.78;;;29.90;36.80;;;;;;5004134;28;20034;-55
2021/05/31 10:58:25;;;;;;;6.03;2.92;;;29.50;38.50;;;;;;5000647;28;20039;-56
2021/05/31 11:00:56;;;;;;;7.32;2.95;;;29.50;38.70;;;;;;5009098;28;20060;-55
2021/05/31 11:03:23;;;;;;;4.75;2.60;;;29.40;39.30;;;;;;5011372;28;20037;-56
2021/05/31 11:05:51;;;;;;;26.20;4.10;;;29.60;38.40;;;;;;5011129;28;20038;-56
2021/05/31 11:08:30;;;;;;;4.80;2.78;;;29.20;38.70;;;;;;5003326;28;20462;-56
2021/05/31 11:11:02;;;;;;;4.93;3.00;;;28.70;39.40;;;;;;5008918;28;20103;-56
2021/05/31 11:13:29;;;;;;;;;;;28.80;39.60;;;;;;4989162;28;20046;-56
2021/05/31 11:16:10;;;;;;;4.40;2.70;;;28.60;40.70;;;;;;4996234;28;19992;-56
2021/05/31 11:18:41;;;;;;;6.30;3.22;;;29.00;40.50;;;;;;5003238;28;20025;-56
2021/05/31 11:21:07;;;;;;;5.35;2.90;;;28.70;39.40;;;;;;5004452;28;20615;-56
2021/05/31 11:23:33;;;;;;;6.07;2.85;;;29.00;39.70;;;;;;4984924;28;20033;-55
2021/05/31 11:25:58;;;;;;;4.80;2.95;;;28.70;39.40;;;;;;5008843;28;20037;-55
2021/05/31 11:28:32;;;;;;;5.28;2.50;;;28.90;41.10;;;;;;5085848;27;20397;-55
2021/05/31 11:30:57;;;;;;;4.78;2.55;;;29.50;40.10;;;;;;5079957;28;20142;-55
2021/05/31 11:33:23;;;;;;;6.75;3.25;;;30.10;37.90;;;;;;5077995;28;20120;-56
2021/05/31 11:35:49;;;;;;;5.20;2.88;;;30.30;38.50;;;;;;5074598;28;20020;-56
2021/05/31 11:38:17;;;;;;;11.68;2.80;;;29.80;38.40;;;;;;5088995;28;20044;-55
2021/05/31 11:40:43;;;;;;;4.63;2.80;;;28.90;38.90;;;;;;5082499;28;20051;-55
2021/05/31 11:43:14;;;;;;;6.05;3.17;;;28.40;41.30;;;;;;5071560;28;20040;-55
2021/05/31 11:45:44;;;;;;;4.72;3.03;;;28.20;40.00;;;;;;5078361;28;20544;-55
2021/05/31 11:48:18;;;;;;;5.40;2.53;;;28.50;39.70;;;;;;5078038;28;20107;-54
2021/05/31 11:50:46;;;;;;;5.25;2.80;;;28.70;39.80;;;;;;5080204;28;20046;-55
2021/05/31 11:53:15;;;;;;;5.00;2.85;;;28.20;40.90;;;;;;5072944;28;20349;-54
2021/05/31 11:55:42;;;;;;;4.63;2.80;;;28.50;41.00;;;;;;5079651;28;20016;-56
2021/05/31 11:58:08;;;;;;;6.90;2.55;;;28.90;39.80;;;;;;5091967;28;20028;-55
2021/05/31 12:00:38;;;;;;;7.28;2.50;;;30.10;38.80;;;;;;5073551;28;20028;-55
2021/05/31 12:03:04;;;;;;;3.30;2.75;;;31.00;37.60;;;;;;5065609;28;20036;-56
2021/05/31 12:05:35;;;;;;;6.70;2.70;;;31.50;36.80;;;;;;5075486;28;20410;-56
2021/05/31 12:08:13;;;;;;;5.20;2.65;;;31.30;37.50;;;;;;5079641;28;20047;-56
2021/05/31 12:10:41;;;;;;;5.32;2.60;;;31.20;36.80;;;;;;5078306;28;20065;-56
2021/05/31 12:13:06;;;;;;;5.50;2.50;;;30.70;37.40;;;;;;5067980;28;20029;-56
2021/05/31 12:15:33;;;;;;;2.78;2.40;;;30.50;37.30;;;;;;5077938;28;20023;-57
2021/05/31 12:18:13;;;;;;;3.25;2.40;;;30.70;36.10;;;;;;5079384;28;20064;-57
2021/05/31 12:20:40;;;;;;;2.80;2.50;;;30.90;37.00;;;;;;5091734;28;20048;-56
2021/05/31 12:23:36;;;;;;;7.10;2.70;;;30.70;36.50;;;;;;5064735;28;20051;-57
2021/05/31 12:26:05;;;;;;;5.15;2.60;;;30.60;37.30;;;;;;5079316;28;20036;-56
2021/05/31 12:28:35;;;;;;;6.70;2.80;;;30.40;36.70;;;;;;5075601;28;20055;-56
2021/05/31 12:31:01;;;;;;;4.50;2.70;;;29.50;38.80;;;;;;5084981;28;20036;-55
2021/05/31 12:33:27;;;;;;;6.78;2.58;;;30.20;37.30;;;;;;5071387;28;20118;-56
2021/05/31 12:35:53;;;;;;;5.47;2.53;;;31.10;37.00;;;;;;5077466;28;20127;-55
2021/05/31 12:38:20;;;;;;;4.38;2.42;;;31.50;35.50;;;;;;5078322;28;20396;-56
2021/05/31 12:40:47;;;;;;;6.82;2.63;;;31.60;36.30;;;;;;5069810;28;20085;-56
2021/05/31 12:43:14;;;;;;;3.20;2.50;;;30.90;35.80;;;;;;5051369;28;20036;-57
2021/05/31 12:45:45;;;;;;;5.25;2.85;;;31.20;36.30;;;;;;5060287;28;20036;-56
2021/05/31 12:48:21;;;;;;;3.47;2.67;;;30.90;36.00;;;;;;5064370;28;20031;-56
2021/05/31 12:50:56;;;;;;;7.55;2.70;;;30.90;36.20;;;;;;5066610;28;20540;-56
2021/05/31 12:53:26;;;;;;;4.05;2.92;;;30.60;38.40;;;;;;5055677;28;20347;-56
2021/05/31 12:55:58;;;;;;;6.95;2.40;;;31.20;36.90;;;;;;5070511;28;20480;-58
2021/05/31 12:58:26;;;;;;;7.32;2.80;;;32.40;35.40;;;;;;5067229;28;20111;-58
2021/05/31 13:00:51;;;;;;;12.57;3.53;;;31.30;37.50;;;;;;5054116;28;20036;-59
2021/05/31 13:03:18;;;;;;;9.27;3.80;;;29.40;38.10;;;;;;5065366;28;20039;-57
2021/05/31 13:05:48;;;;;;;3.40;2.75;;;28.70;38.70;;;;;;5066798;28;20143;-58
2021/05/31 13:08:15;;;;;;;4.75;2.80;;;28.30;40.50;;;;;;5059965;28;20043;-58